createdAt,value
2023-04-15T00:00:58.431Z,5.88
2023-04-15T00:03:26.026Z,5.97
2023-04-15T00:05:53.529Z,5.80
2023-04-15T00:08:20.613Z,5.38
2023-04-15T00:10:47.854Z,4.90
2023-04-15T00:13:15.542Z,5.60
2023-04-15T00:15:43.479Z,5.23
2023-04-15T00:18:10.678Z,5.63
2023-04-15T00:20:37.754Z,5.45
2023-04-15T00:23:05.632Z,5.78
2023-04-15T00:25:33.072Z,5.32
2023-04-15T00:28:00.105Z,4.97
2023-04-15T00:30:27.358Z,5.25
2023-04-15T00:32:54.689Z,6.00
2023-04-15T00:35:24.058Z,5.60
2023-04-15T00:37:51.685Z,6.43
2023-04-15T00:40:21.205Z,6.90
2023-04-15T00:42:48.701Z,6.10
2023-04-15T00:45:15.964Z,6.95
2023-04-15T00:47:44.211Z,6.85
2023-04-15T00:50:12.585Z,7.30
2023-04-15T00:52:40.289Z,6.53
2023-04-15T00:55:07.998Z,7.60
2023-04-15T00:57:36.248Z,7.88
2023-04-15T01:00:04.708Z,6.65
2023-04-15T01:02:32.754Z,7.65
2023-04-15T01:05:02.207Z,7.23
2023-04-15T01:07:29.201Z,6.70
2023-04-15T01:09:56.875Z,6.88
2023-04-15T01:12:26.530Z,6.18
2023-04-15T01:14:57.229Z,5.90
2023-04-15T01:17:25.670Z,6.43
2023-04-15T01:19:53.150Z,6.85
2023-04-15T01:22:21.098Z,6.10
2023-04-15T01:24:59.925Z,6.57
2023-04-15T01:27:26.989Z,6.10
2023-04-15T01:29:54.328Z,6.03
2023-04-15T01:32:21.155Z,5.80
2023-04-15T01:34:48.415Z,5.57
2023-04-15T01:37:15.683Z,6.50
2023-04-15T01:39:44.510Z,6.28
2023-04-15T01:42:11.881Z,5.87
2023-04-15T01:44:39.146Z,6.38
2023-04-15T01:47:06.871Z,6.38
2023-04-15T01:49:34.210Z,6.00
2023-04-15T01:52:01.473Z,5.70
2023-04-15T01:54:28.579Z,6.23
2023-04-15T01:56:56.805Z,6.03
2023-04-15T01:59:25.034Z,6.10
2023-04-15T02:01:52.410Z,6.57
2023-04-15T02:04:20.434Z,6.32
2023-04-15T02:06:47.729Z,6.43
2023-04-15T02:09:15.007Z,6.63
2023-04-15T02:11:42.387Z,5.85
2023-04-15T02:14:09.681Z,6.00
2023-04-15T02:16:37.012Z,7.03
2023-04-15T02:19:04.561Z,6.13
2023-04-15T02:21:31.422Z,6.72
2023-04-15T02:23:58.775Z,6.43
2023-04-15T02:26:26.098Z,6.20
2023-04-15T02:28:55.405Z,6.50
2023-04-15T02:31:22.975Z,6.07
2023-04-15T02:33:50.166Z,6.18
2023-04-15T02:36:17.594Z,6.43
2023-04-15T02:38:44.812Z,6.40
2023-04-15T02:41:14.288Z,6.50
2023-04-15T02:43:42.082Z,6.03
2023-04-15T02:46:14.636Z,5.68
2023-04-15T02:48:41.870Z,6.50
2023-04-15T02:51:13.958Z,6.55
2023-04-15T02:53:41.619Z,6.57
2023-04-15T02:56:09.128Z,6.07
2023-04-15T02:58:36.562Z,6.43
2023-04-15T03:01:04.051Z,6.25
2023-04-15T03:03:31.513Z,6.15
2023-04-15T03:05:58.421Z,6.35
2023-04-15T03:08:25.909Z,6.80
2023-04-15T03:10:53.620Z,6.40
2023-04-15T03:13:21.494Z,6.05
2023-04-15T03:15:49.093Z,6.60
2023-04-15T03:18:16.705Z,6.63
2023-04-15T03:20:44.050Z,6.33
2023-04-15T03:23:11.672Z,6.45
2023-04-15T03:25:39.567Z,6.65
2023-04-15T03:28:07.912Z,5.75
2023-04-15T03:30:35.377Z,5.93
2023-04-15T03:33:02.831Z,5.77
2023-04-15T03:35:30.457Z,5.82
2023-04-15T03:37:57.691Z,6.40
2023-04-15T03:40:24.904Z,5.95
2023-04-15T03:42:52.145Z,5.82
2023-04-15T03:45:19.082Z,5.93
2023-04-15T03:47:46.570Z,6.55
2023-04-15T03:50:13.851Z,6.60
2023-04-15T03:52:41.149Z,6.10
2023-04-15T03:55:09.389Z,6.32
2023-04-15T03:57:39.338Z,6.20
2023-04-15T04:00:07.419Z,6.72
2023-04-15T04:02:39.115Z,7.30
2023-04-15T04:05:06.643Z,7.40
2023-04-15T04:07:33.886Z,6.10
2023-04-15T04:10:01.309Z,6.20
2023-04-15T04:12:28.519Z,8.32
2023-04-15T04:14:56.309Z,7.65
2023-04-15T04:17:23.610Z,7.35
2023-04-15T04:19:50.922Z,7.43
2023-04-15T04:22:18.301Z,6.70
2023-04-15T04:24:45.553Z,6.95
2023-04-15T04:27:12.930Z,7.20
2023-04-15T04:29:40.135Z,6.55
2023-04-15T04:32:07.158Z,7.50
2023-04-15T04:34:34.765Z,6.90
2023-04-15T04:37:01.993Z,7.10
2023-04-15T04:39:29.209Z,7.15
2023-04-15T04:41:56.086Z,7.10
2023-04-15T04:44:23.453Z,6.95
2023-04-15T04:46:50.762Z,6.93
2023-04-15T04:49:17.929Z,7.20
2023-04-15T04:51:45.298Z,6.07
2023-04-15T04:54:12.933Z,7.93
2023-04-15T04:56:40.305Z,7.28
2023-04-15T04:59:07.858Z,7.33
2023-04-15T05:01:35.160Z,7.18
2023-04-15T05:04:03.763Z,6.55
2023-04-15T05:06:31.111Z,6.72
2023-04-15T05:08:58.613Z,6.90
2023-04-15T05:11:26.198Z,6.97
2023-04-15T05:13:53.421Z,6.78
2023-04-15T05:16:20.786Z,7.68
2023-04-15T05:18:48.210Z,7.38
2023-04-15T05:21:15.538Z,6.72
2023-04-15T05:23:42.823Z,7.40
2023-04-15T05:26:10.041Z,6.88
2023-04-15T05:28:36.938Z,7.10
2023-04-15T05:31:04.345Z,7.03
2023-04-15T05:33:31.623Z,7.05
2023-04-15T05:35:59.069Z,6.97
2023-04-15T05:38:27.040Z,7.10
2023-04-15T05:40:54.355Z,6.57
2023-04-15T05:43:21.567Z,7.05
2023-04-15T05:45:48.834Z,7.45
2023-04-15T05:48:16.345Z,6.67
2023-04-15T05:50:43.566Z,7.10
2023-04-15T05:53:11.691Z,6.68
2023-04-15T05:55:39.011Z,7.63
2023-04-15T05:58:06.358Z,6.93
2023-04-15T06:00:33.805Z,7.57
2023-04-15T06:03:01.110Z,6.97
2023-04-15T06:05:28.460Z,7.32
2023-04-15T06:07:57.034Z,7.22
2023-04-15T06:10:24.326Z,7.75
2023-04-15T06:12:53.294Z,7.23
2023-04-15T06:15:20.545Z,6.95
2023-04-15T06:17:47.777Z,7.30
2023-04-15T06:20:15.159Z,6.97
2023-04-15T06:22:42.035Z,6.88
2023-04-15T06:25:09.761Z,7.27
2023-04-15T06:27:37.077Z,6.85
2023-04-15T06:30:04.734Z,7.25
2023-04-15T06:32:32.968Z,7.18
2023-04-15T06:35:00.216Z,9.02
2023-04-15T06:37:27.528Z,7.07
2023-04-15T06:39:54.729Z,7.43
2023-04-15T06:42:21.976Z,7.20
2023-04-15T06:44:49.542Z,6.65
2023-04-15T06:47:16.805Z,6.80
2023-04-15T06:49:44.872Z,6.80
2023-04-15T06:52:12.683Z,5.90
2023-04-15T06:54:39.907Z,6.53
2023-04-15T06:57:07.532Z,7.35
2023-04-15T06:59:34.695Z,7.20
2023-04-15T07:02:01.824Z,8.23
2023-04-15T07:04:29.141Z,6.75
2023-04-15T07:06:56.889Z,7.60
2023-04-15T07:09:24.913Z,7.63
2023-04-15T07:11:52.490Z,7.50
2023-04-15T07:14:19.780Z,7.37
2023-04-15T07:16:47.239Z,7.30
2023-04-15T07:19:14.567Z,8.02
2023-04-15T07:21:42.393Z,7.88
2023-04-15T07:24:10.566Z,8.23
2023-04-15T07:26:37.450Z,6.97
2023-04-15T07:29:04.389Z,9.90
2023-04-15T07:31:31.363Z,9.23
2023-04-15T07:33:58.684Z,6.70
2023-04-15T07:36:25.675Z,6.95
2023-04-15T07:38:52.924Z,6.60
2023-04-15T07:41:21.067Z,6.35
2023-04-15T07:43:48.858Z,6.20
2023-04-15T07:46:16.166Z,6.18
2023-04-15T07:48:43.273Z,5.85
2023-04-15T07:51:10.851Z,5.70
2023-04-15T07:53:38.272Z,5.38
2023-04-15T07:56:05.772Z,5.53
2023-04-15T07:58:32.963Z,5.40
2023-04-15T08:00:59.723Z,5.60
2023-04-15T08:03:27.650Z,5.33
2023-04-15T08:05:55.058Z,5.63
2023-04-15T08:08:22.356Z,5.45
2023-04-15T08:10:52.404Z,5.22
2023-04-15T08:13:20.235Z,5.25
2023-04-15T08:15:47.962Z,5.10
2023-04-15T08:18:15.858Z,5.00
2023-04-15T08:20:43.208Z,6.00
2023-04-15T08:23:10.445Z,5.10
2023-04-15T08:25:37.693Z,5.15
2023-04-15T08:28:07.141Z,4.97
2023-04-15T08:30:34.542Z,4.88
2023-04-15T08:33:01.772Z,5.10
2023-04-15T08:35:29.076Z,4.50
2023-04-15T08:37:56.769Z,4.90
2023-04-15T08:40:34.368Z,5.73
2023-04-15T08:43:03.783Z,4.60
2023-04-15T08:45:30.957Z,4.53
2023-04-15T08:47:59.012Z,4.93
2023-04-15T08:50:29.086Z,4.03
2023-04-15T08:52:58.777Z,3.97
2023-04-15T08:55:30.901Z,3.80
2023-04-15T08:57:58.228Z,4.05
2023-04-15T09:00:27.073Z,3.83
2023-04-15T09:02:55.113Z,8.60
2023-04-15T09:05:23.105Z,3.90
2023-04-15T09:07:51.476Z,4.28
2023-04-15T09:10:18.918Z,3.90
2023-04-15T09:12:46.673Z,3.72
2023-04-15T09:15:14.255Z,4.57
2023-04-15T09:17:45.688Z,3.87
2023-04-15T09:20:16.910Z,3.80
2023-04-15T09:22:48.011Z,5.70
2023-04-15T09:25:30.056Z,4.38
2023-04-15T09:27:59.439Z,4.93
2023-04-15T09:30:28.750Z,4.23
2023-04-15T09:32:58.041Z,4.40
2023-04-15T09:35:27.436Z,6.03
2023-04-15T09:37:55.529Z,4.07
2023-04-15T09:40:32.918Z,3.88
2023-04-15T09:43:00.346Z,3.60
2023-04-15T09:45:29.541Z,3.58
2023-04-15T09:47:59.190Z,3.65
2023-04-15T09:50:29.860Z,4.53
2023-04-15T09:52:57.416Z,3.33
2023-04-15T09:55:24.840Z,3.23
2023-04-15T09:57:52.289Z,5.03
2023-04-15T10:00:19.164Z,3.30
2023-04-15T10:02:47.682Z,3.90
2023-04-15T10:05:16.442Z,3.40
2023-04-15T10:07:44.228Z,3.93
2023-04-15T10:10:11.857Z,4.35
2023-04-15T10:12:41.548Z,4.22
2023-04-15T10:15:17.432Z,3.83
2023-04-15T10:17:45.456Z,4.15
2023-04-15T10:20:14.769Z,4.37
2023-04-15T10:22:43.575Z,3.67
2023-04-15T10:25:11.877Z,3.70
2023-04-15T10:27:42.060Z,4.05
2023-04-15T10:30:09.599Z,3.63
2023-04-15T10:32:38.674Z,4.17
2023-04-15T10:35:06.720Z,4.38
2023-04-15T10:37:37.829Z,4.40
2023-04-15T10:40:34.752Z,4.10
2023-04-15T10:43:02.873Z,4.20
2023-04-15T10:45:37.498Z,3.70
2023-04-15T10:48:07.291Z,4.55
2023-04-15T10:50:34.390Z,3.83
2023-04-15T10:53:04.866Z,3.90
2023-04-15T10:55:34.806Z,4.07
2023-04-15T10:58:02.710Z,5.17
2023-04-15T11:00:35.235Z,3.85
2023-04-15T11:03:09.983Z,4.57
2023-04-15T11:05:42.638Z,4.20
2023-04-15T11:08:10.966Z,5.47
2023-04-15T11:10:37.715Z,4.37
2023-04-15T11:13:18.250Z,4.18
2023-04-15T11:15:46.073Z,4.72
2023-04-15T11:18:28.660Z,3.80
2023-04-15T11:21:00.422Z,3.72
2023-04-15T11:23:34.948Z,3.97
2023-04-15T11:26:06.802Z,4.03
2023-04-15T11:28:33.938Z,4.25
2023-04-15T11:31:12.472Z,5.13
2023-04-15T11:33:55.561Z,3.67
2023-04-15T11:36:27.246Z,3.50
2023-04-15T11:38:54.585Z,2.88
2023-04-15T11:41:24.627Z,4.07
2023-04-15T11:43:52.472Z,3.20
2023-04-15T11:46:20.075Z,3.47
2023-04-15T11:48:47.278Z,4.17
2023-04-15T11:51:14.982Z,4.95
2023-04-15T11:53:46.698Z,3.42
2023-04-15T11:56:24.602Z,3.00
2023-04-15T11:58:59.667Z,3.47
2023-04-15T12:01:39.793Z,3.50
2023-04-15T12:04:22.568Z,3.13
2023-04-15T12:06:51.474Z,2.50
2023-04-15T12:09:20.230Z,2.83
2023-04-15T12:11:49.588Z,3.28
2023-04-15T12:14:26.603Z,2.50
2023-04-15T12:16:58.732Z,2.38
2023-04-15T12:19:45.437Z,2.50
2023-04-15T12:22:13.977Z,3.80
2023-04-15T12:24:44.323Z,3.15
2023-04-15T12:27:13.264Z,2.60
2023-04-15T12:29:41.911Z,2.92
2023-04-15T12:32:09.354Z,3.00
2023-04-15T12:34:38.828Z,3.15
2023-04-15T12:37:07.748Z,2.88
2023-04-15T12:39:39.517Z,2.87
2023-04-15T12:42:07.044Z,2.50
2023-04-15T12:44:36.484Z,3.40
2023-04-15T12:47:03.945Z,2.50
2023-04-15T12:49:32.555Z,2.40
2023-04-15T12:52:01.251Z,2.60
2023-04-15T12:54:29.507Z,2.28
2023-04-15T12:56:56.937Z,2.80
2023-04-15T12:59:24.388Z,2.78
2023-04-15T13:01:53.397Z,4.10
2023-04-15T13:04:21.194Z,3.30
2023-04-15T13:06:48.361Z,2.20
2023-04-15T13:09:15.706Z,2.63
2023-04-15T13:11:43.266Z,2.50
2023-04-15T13:14:13.900Z,2.40
2023-04-15T13:16:41.521Z,2.60
2023-04-15T13:19:09.107Z,2.70
2023-04-15T13:21:36.696Z,2.60
2023-04-15T13:24:04.932Z,2.00
2023-04-15T13:26:32.506Z,2.70
2023-04-15T13:28:59.751Z,2.87
2023-04-15T13:31:27.293Z,2.33
2023-04-15T13:33:54.704Z,1.92
2023-04-15T13:36:21.712Z,6.07
2023-04-15T13:38:51.125Z,2.42
2023-04-15T13:41:18.530Z,2.63
2023-04-15T13:43:46.285Z,2.25
2023-04-15T13:46:13.650Z,2.10
2023-04-15T13:48:41.069Z,1.90
2023-04-15T13:51:08.522Z,2.50
2023-04-15T13:53:38.200Z,2.40
2023-04-15T13:56:10.135Z,2.25
2023-04-15T13:58:38.311Z,2.60
2023-04-15T14:01:06.943Z,2.28
2023-04-15T14:03:37.540Z,2.40
2023-04-15T14:06:05.903Z,2.77
2023-04-15T14:08:33.479Z,3.65
2023-04-15T14:11:00.809Z,2.00
2023-04-15T14:13:28.165Z,2.10
2023-04-15T14:15:55.478Z,2.47
2023-04-15T14:18:22.710Z,2.43
2023-04-15T14:20:49.995Z,2.10
2023-04-15T14:23:16.865Z,2.20
2023-04-15T14:25:45.041Z,2.10
2023-04-15T14:28:13.323Z,1.90
2023-04-15T14:30:40.852Z,2.27
2023-04-15T14:33:07.695Z,3.28
2023-04-15T14:35:34.525Z,3.10
2023-04-15T14:38:01.717Z,4.82
2023-04-15T14:40:28.799Z,2.90
2023-04-15T14:42:56.227Z,3.73
2023-04-15T14:45:23.850Z,3.72
2023-04-15T14:47:51.205Z,4.15
2023-04-15T14:50:18.188Z,2.88
2023-04-15T14:52:45.459Z,3.97
2023-04-15T14:55:13.178Z,2.23
2023-04-15T14:57:42.227Z,2.20
2023-04-15T15:00:12.708Z,2.30
2023-04-15T15:02:43.908Z,3.13
2023-04-15T15:05:12.308Z,2.90
2023-04-15T15:07:40.854Z,2.50
2023-04-15T15:10:08.468Z,3.22
2023-04-15T15:12:35.925Z,2.08
2023-04-15T15:15:12.393Z,2.70
2023-04-15T15:17:43.795Z,4.10
2023-04-15T15:20:11.316Z,3.90
2023-04-15T15:22:38.165Z,3.05
2023-04-15T15:25:05.692Z,3.00
2023-04-15T15:27:32.939Z,3.25
2023-04-15T15:30:00.350Z,4.18
2023-04-15T15:32:27.688Z,4.77
2023-04-15T15:34:55.036Z,3.70
2023-04-15T15:37:21.983Z,2.83
2023-04-15T15:39:50.659Z,2.92
2023-04-15T15:42:19.322Z,2.63
2023-04-15T15:44:46.316Z,1.93
2023-04-15T15:47:13.869Z,1.92
2023-04-15T15:49:41.023Z,1.90
2023-04-15T15:52:08.680Z,2.75
2023-04-15T15:54:37.651Z,3.47
2023-04-15T15:57:04.950Z,2.83
2023-04-15T15:59:33.285Z,2.08
2023-04-15T16:02:01.531Z,2.60
2023-04-15T16:04:29.470Z,2.90
2023-04-15T16:06:56.892Z,2.35
2023-04-15T16:09:24.214Z,2.17
2023-04-15T16:11:51.262Z,2.90
2023-04-15T16:14:18.672Z,2.45
2023-04-15T16:16:45.700Z,1.90
2023-04-15T16:19:12.984Z,2.22
2023-04-15T16:21:39.754Z,2.90
2023-04-15T16:24:07.142Z,2.47
2023-04-15T16:26:34.361Z,2.50
2023-04-15T16:29:01.846Z,3.03
2023-04-15T16:31:29.345Z,2.25
2023-04-15T16:33:56.668Z,2.50
2023-04-15T16:36:24.040Z,3.08
2023-04-15T16:38:51.337Z,2.03
2023-04-15T16:41:18.916Z,2.97
2023-04-15T16:43:46.444Z,2.50
2023-04-15T16:46:13.739Z,3.63
2023-04-15T16:48:41.077Z,2.92
2023-04-15T16:51:09.111Z,2.33
2023-04-15T16:53:36.448Z,2.50
2023-04-15T16:56:03.703Z,5.07
2023-04-15T16:58:30.968Z,2.70
2023-04-15T17:00:59.271Z,3.38
2023-04-15T17:03:26.398Z,2.28
2023-04-15T17:05:53.772Z,2.40
2023-04-15T17:08:21.025Z,2.60
2023-04-15T17:10:48.644Z,3.97
2023-04-15T17:13:15.955Z,3.70
2023-04-15T17:15:43.316Z,2.50
2023-04-15T17:18:11.107Z,2.88
2023-04-15T17:20:39.360Z,2.85
2023-04-15T17:23:06.628Z,2.27
2023-04-15T17:25:33.867Z,4.72
2023-04-15T17:28:01.341Z,2.75
2023-04-15T17:30:28.828Z,2.53
2023-04-15T17:32:56.037Z,2.42
2023-04-15T17:35:23.441Z,3.17
2023-04-15T17:37:50.799Z,5.00
2023-04-15T17:40:17.759Z,4.38
2023-04-15T17:42:45.228Z,2.45
2023-04-15T17:45:12.111Z,2.50
2023-04-15T17:47:39.043Z,3.20
2023-04-15T17:50:06.873Z,4.05
2023-04-15T17:52:34.318Z,3.33
2023-04-15T17:55:01.696Z,2.30
2023-04-15T17:57:29.091Z,3.63
2023-04-15T17:59:56.164Z,2.30
2023-04-15T18:02:23.317Z,3.53
2023-04-15T18:04:50.832Z,2.63
2023-04-15T18:07:17.859Z,2.33
2023-04-15T18:09:45.831Z,2.20
2023-04-15T18:12:13.177Z,2.93
2023-04-15T18:14:40.886Z,2.50
2023-04-15T18:17:08.188Z,2.17
2023-04-15T18:19:35.491Z,2.45
2023-04-15T18:22:04.042Z,3.47
2023-04-15T18:24:31.494Z,2.13
2023-04-15T18:26:59.175Z,2.72
2023-04-15T18:29:26.588Z,2.80
2023-04-15T18:31:54.213Z,3.17
2023-04-15T18:34:21.529Z,3.03
2023-04-15T18:36:48.770Z,5.93
2023-04-15T18:39:17.000Z,5.85
2023-04-15T18:41:44.262Z,3.50
2023-04-15T18:44:11.763Z,3.38
2023-04-15T18:46:39.106Z,4.70
2023-04-15T18:49:06.690Z,3.43
2023-04-15T18:51:34.259Z,3.92
2023-04-15T18:54:01.462Z,2.20
2023-04-15T18:56:28.414Z,2.60
2023-04-15T18:59:09.958Z,3.30
2023-04-15T19:01:42.740Z,3.47
2023-04-15T19:04:10.240Z,2.95
2023-04-15T19:06:37.534Z,2.45
2023-04-15T19:09:04.976Z,3.00
2023-04-15T19:11:32.377Z,3.75
2023-04-15T19:13:59.611Z,3.57
2023-04-15T19:16:27.071Z,3.00
2023-04-15T19:18:54.361Z,3.10
2023-04-15T19:21:21.679Z,3.83
2023-04-15T19:23:50.138Z,3.17
2023-04-15T19:26:16.996Z,3.40
2023-04-15T19:28:44.250Z,2.38
2023-04-15T19:31:11.841Z,2.60
2023-04-15T19:33:38.707Z,2.30
2023-04-15T19:36:06.726Z,3.13
2023-04-15T19:38:37.756Z,2.23
2023-04-15T19:41:05.010Z,2.38
2023-04-15T19:43:32.691Z,2.28
2023-04-15T19:46:00.232Z,3.50
2023-04-15T19:48:27.513Z,4.70
2023-04-15T19:50:54.807Z,2.53
2023-04-15T19:53:21.680Z,5.63
2023-04-15T19:55:48.920Z,2.83
2023-04-15T19:58:16.151Z,3.17
2023-04-15T20:00:43.455Z,3.17
2023-04-15T20:03:10.902Z,3.40
2023-04-15T20:05:38.335Z,3.45
2023-04-15T20:08:05.628Z,2.83
2023-04-15T20:10:32.964Z,2.45
2023-04-15T20:13:00.230Z,2.60
2023-04-15T20:15:27.525Z,10.87
2023-04-15T20:17:54.953Z,6.00
2023-04-15T20:20:22.736Z,2.45
2023-04-15T20:22:50.473Z,2.70
2023-04-15T20:25:17.700Z,4.28
2023-04-15T20:27:45.187Z,3.90
2023-04-15T20:30:12.499Z,5.18
2023-04-15T20:32:39.428Z,4.72
2023-04-15T20:35:07.179Z,2.60
2023-04-15T20:37:34.882Z,3.22
2023-04-15T20:40:02.501Z,2.40
2023-04-15T20:42:36.511Z,2.63
2023-04-15T20:45:03.890Z,3.78
2023-04-15T20:47:31.067Z,3.80
2023-04-15T20:49:58.452Z,3.95
2023-04-15T20:52:25.859Z,2.87
2023-04-15T20:54:53.083Z,3.83
2023-04-15T20:57:24.631Z,3.75
2023-04-15T20:59:52.178Z,3.40
2023-04-15T21:02:19.473Z,2.08
2023-04-15T21:04:47.221Z,2.90
2023-04-15T21:07:14.031Z,3.60
2023-04-15T21:09:42.958Z,2.63
2023-04-15T21:12:11.235Z,2.40
2023-04-15T21:14:39.718Z,3.25
2023-04-15T21:17:10.060Z,2.80
2023-04-15T21:19:38.406Z,3.05
2023-04-15T21:22:05.775Z,2.92
2023-04-15T21:24:33.048Z,2.65
2023-04-15T21:27:01.937Z,3.00
2023-04-15T21:29:29.297Z,3.33
2023-04-15T21:31:56.580Z,2.72
2023-04-15T21:34:23.940Z,2.72
2023-04-15T21:36:50.895Z,2.63
2023-04-15T21:39:18.202Z,2.85
2023-04-15T21:41:45.111Z,2.90
2023-04-15T21:44:14.563Z,2.45
2023-04-15T21:46:45.699Z,3.05
2023-04-15T21:49:13.597Z,3.13
2023-04-15T21:51:40.857Z,2.50
2023-04-15T21:54:08.446Z,2.10
2023-04-15T21:56:36.767Z,2.67
2023-04-15T21:59:04.324Z,3.60
2023-04-15T22:01:31.407Z,2.95
2023-04-15T22:03:58.737Z,2.75
2023-04-15T22:06:27.247Z,3.37
2023-04-15T22:08:57.452Z,2.10
2023-04-15T22:11:30.490Z,2.35
2023-04-15T22:13:58.094Z,2.60
2023-04-15T22:16:28.385Z,3.10
2023-04-15T22:18:56.302Z,2.87
2023-04-15T22:21:23.697Z,2.50
2023-04-15T22:23:51.731Z,2.70
2023-04-15T22:26:18.593Z,2.60
2023-04-15T22:28:46.133Z,2.20
2023-04-15T22:31:14.787Z,2.40
2023-04-15T22:33:42.113Z,2.00
2023-04-15T22:36:09.486Z,3.20
2023-04-15T22:38:36.747Z,2.03
2023-04-15T22:41:03.974Z,2.60
2023-04-15T22:43:31.194Z,2.50
2023-04-15T22:45:58.544Z,2.80
2023-04-15T22:48:25.945Z,2.17
2023-04-15T22:50:53.179Z,2.80
2023-04-15T22:53:20.137Z,2.80
2023-04-15T22:55:48.000Z,2.87
2023-04-15T22:58:15.545Z,2.65
2023-04-15T23:00:42.686Z,2.53
2023-04-15T23:03:10.144Z,2.42
2023-04-15T23:05:37.645Z,2.70
2023-04-15T23:08:04.898Z,3.47
2023-04-15T23:10:32.103Z,2.50
2023-04-15T23:12:59.363Z,2.50
2023-04-15T23:15:26.224Z,2.53
2023-04-15T23:17:53.133Z,2.75
2023-04-15T23:20:20.504Z,3.30
2023-04-15T23:22:47.428Z,3.03
2023-04-15T23:25:14.453Z,2.80
2023-04-15T23:27:41.690Z,2.55
2023-04-15T23:30:08.904Z,2.83
2023-04-15T23:32:35.863Z,2.80
2023-04-15T23:35:03.453Z,3.20
2023-04-15T23:37:34.041Z,3.03
2023-04-15T23:40:01.288Z,3.08
2023-04-15T23:42:28.534Z,2.33
2023-04-15T23:44:55.903Z,2.60
2023-04-15T23:47:23.345Z,2.95
2023-04-15T23:49:50.974Z,2.60
2023-04-15T23:52:17.859Z,3.20
2023-04-15T23:54:45.137Z,2.85
2023-04-15T23:57:12.404Z,2.97
2023-04-15T23:59:39.709Z,2.55
